sensor_id;sensor_type;location;lat;lon;timestamp;pressure;altitude;pressure_sealevel;temperature;humidity
36932;BME280;22847;42.654;23.370;2024-03-08T00:00:23;94703.16;;;8.11;85.35
36932;BME280;22847;42.654;23.370;2024-03-08T00:02:48;94721.28;;;8.22;85.15
36932;BME280;22847;42.654;23.370;2024-03-08T00:05:16;94585.44;;;7.40;85.01
36932;BME280;22847;42.654;23.370;2024-03-08T00:07:42;94691.09;;;8.00;85.48
36932;BME280;22847;42.654;23.370;2024-03-08T00:10:10;94721.53;;;8.40;84.61
36932;BME280;22847;42.654;23.370;2024-03-08T00:12:44;94734.63;;;8.38;84.12
36932;BME280;22847;42.654;23.370;2024-03-08T00:15:10;94715.06;;;8.34;84.39
36932;BME280;22847;42.654;23.370;2024-03-08T00:17:42;94703.66;;;8.26;83.87
36932;BME280;22847;42.654;23.370;2024-03-08T00:20:08;94690.50;;;8.18;84.45
36932;BME280;22847;42.654;23.370;2024-03-08T00:22:34;94723.81;;;8.33;84.30
36932;BME280;22847;42.654;23.370;2024-03-08T00:25:01;94712.63;;;8.33;84.38
36932;BME280;22847;42.654;23.370;2024-03-08T00:27:28;94671.94;;;8.01;84.89
36932;BME280;22847;42.654;23.370;2024-03-08T00:29:59;94705.50;;;8.35;84.85
36932;BME280;22847;42.654;23.370;2024-03-08T00:32:25;94586.44;;;6.87;87.50
36932;BME280;22847;42.654;23.370;2024-03-08T00:34:53;94706.22;;;7.33;89.34
36932;BME280;22847;42.654;23.370;2024-03-08T00:37:22;94695.88;;;7.22;89.98
36932;BME280;22847;42.654;23.370;2024-03-08T00:39:53;94679.94;;;6.95;91.28
36932;BME280;22847;42.654;23.370;2024-03-08T00:42:20;94670.19;;;7.19;90.74
36932;BME280;22847;42.654;23.370;2024-03-08T00:44:46;94705.69;;;7.07;90.99
36932;BME280;22847;42.654;23.370;2024-03-08T00:47:11;94720.38;;;7.29;90.53
36932;BME280;22847;42.654;23.370;2024-03-08T00:49:37;94665.75;;;7.10;90.09
36932;BME280;22847;42.654;23.370;2024-03-08T00:52:06;94699.28;;;7.54;89.79
36932;BME280;22847;42.654;23.370;2024-03-08T00:54:35;94712.16;;;7.66;89.13
36932;BME280;22847;42.654;23.370;2024-03-08T00:57:01;94660.72;;;7.71;88.21
36932;BME280;22847;42.654;23.370;2024-03-08T00:59:28;94633.59;;;7.54;87.28
36932;BME280;22847;42.654;23.370;2024-03-08T01:01:54;94679.00;;;7.90;87.51
36932;BME280;22847;42.654;23.370;2024-03-08T01:04:20;94630.28;;;7.73;86.19
36932;BME280;22847;42.654;23.370;2024-03-08T01:06:46;94515.75;;;6.85;87.00
36932;BME280;22847;42.654;23.370;2024-03-08T01:09:13;94651.94;;;7.41;88.46
36932;BME280;22847;42.654;23.370;2024-03-08T01:11:38;94675.28;;;7.83;87.92
36932;BME280;22847;42.654;23.370;2024-03-08T01:14:04;94618.66;;;7.46;87.99
36932;BME280;22847;42.654;23.370;2024-03-08T01:16:29;94679.94;;;7.89;87.65
36932;BME280;22847;42.654;23.370;2024-03-08T01:18:55;94662.88;;;7.86;87.16
36932;BME280;22847;42.654;23.370;2024-03-08T01:21:20;94673.63;;;7.61;87.76
36932;BME280;22847;42.654;23.370;2024-03-08T01:23:46;94607.28;;;7.38;87.06
36932;BME280;22847;42.654;23.370;2024-03-08T01:26:12;94622.63;;;7.30;87.73
36932;BME280;22847;42.654;23.370;2024-03-08T01:28:37;94659.66;;;7.52;88.83
36932;BME280;22847;42.654;23.370;2024-03-08T01:31:03;94675.28;;;7.62;88.57
36932;BME280;22847;42.654;23.370;2024-03-08T01:33:31;94651.69;;;7.65;88.46
36932;BME280;22847;42.654;23.370;2024-03-08T01:35:57;94624.22;;;7.62;87.30
36932;BME280;22847;42.654;23.370;2024-03-08T01:38:23;94541.50;;;7.18;86.92
36932;BME280;22847;42.654;23.370;2024-03-08T01:40:49;94658.25;;;7.90;86.62
36932;BME280;22847;42.654;23.370;2024-03-08T01:43:35;94662.28;;;8.03;86.45
36932;BME280;22847;42.654;23.370;2024-03-08T01:46:01;94662.44;;;8.12;85.76
36932;BME280;22847;42.654;23.370;2024-03-08T01:48:30;94659.41;;;8.06;85.85
36932;BME280;22847;42.654;23.370;2024-03-08T01:50:57;94650.19;;;7.93;85.76
36932;BME280;22847;42.654;23.370;2024-03-08T01:53:24;94604.16;;;7.44;84.91
36932;BME280;22847;42.654;23.370;2024-03-08T01:55:52;94557.19;;;7.37;84.54
36932;BME280;22847;42.654;23.370;2024-03-08T01:58:19;94519.53;;;7.22;83.19
36932;BME280;22847;42.654;23.370;2024-03-08T02:00:48;94503.72;;;6.63;86.12
36932;BME280;22847;42.654;23.370;2024-03-08T02:03:16;94512.75;;;6.80;86.39
36932;BME280;22847;42.654;23.370;2024-03-08T02:05:42;94529.38;;;6.98;86.07
36932;BME280;22847;42.654;23.370;2024-03-08T02:08:09;94511.31;;;6.76;86.27
36932;BME280;22847;42.654;23.370;2024-03-08T02:10:39;94548.16;;;7.11;86.30
36932;BME280;22847;42.654;23.370;2024-03-08T02:13:06;94655.09;;;7.86;85.35
36932;BME280;22847;42.654;23.370;2024-03-08T02:15:56;94654.66;;;7.81;84.52
36932;BME280;22847;42.654;23.370;2024-03-08T02:18:24;94655.34;;;7.83;84.19
36932;BME280;22847;42.654;23.370;2024-03-08T02:20:57;94634.25;;;7.77;83.74
36932;BME280;22847;42.654;23.370;2024-03-08T02:23:23;94519.09;;;7.17;82.78
36932;BME280;22847;42.654;23.370;2024-03-08T02:25:53;94686.19;;;8.07;82.84
36932;BME280;22847;42.654;23.370;2024-03-08T02:28:19;94663.22;;;8.02;83.27
36932;BME280;22847;42.654;23.370;2024-03-08T02:30:46;94641.06;;;7.98;82.24
36932;BME280;22847;42.654;23.370;2024-03-08T02:33:14;94661.50;;;8.13;81.96
36932;BME280;22847;42.654;23.370;2024-03-08T02:35:45;94648.47;;;8.03;82.07
36932;BME280;22847;42.654;23.370;2024-03-08T02:38:19;94670.66;;;8.17;82.50
36932;BME280;22847;42.654;23.370;2024-03-08T02:40:46;94695.81;;;8.16;81.92
36932;BME280;22847;42.654;23.370;2024-03-08T02:43:13;94633.66;;;7.94;81.87
36932;BME280;22847;42.654;23.370;2024-03-08T02:45:39;94664.59;;;8.06;81.75
36932;BME280;22847;42.654;23.370;2024-03-08T02:48:07;94653.66;;;8.03;81.84
36932;BME280;22847;42.654;23.370;2024-03-08T02:50:33;94676.50;;;7.79;82.78
36932;BME280;22847;42.654;23.370;2024-03-08T02:53:00;94669.03;;;7.65;83.72
36932;BME280;22847;42.654;23.370;2024-03-08T02:55:26;94656.53;;;7.17;84.94
36932;BME280;22847;42.654;23.370;2024-03-08T02:57:52;94643.72;;;7.36;83.97
36932;BME280;22847;42.654;23.370;2024-03-08T03:00:20;94677.81;;;7.73;82.91
36932;BME280;22847;42.654;23.370;2024-03-08T03:02:49;94678.69;;;7.42;81.81
36932;BME280;22847;42.654;23.370;2024-03-08T03:05:22;94614.69;;;7.42;81.07
36932;BME280;22847;42.654;23.370;2024-03-08T03:07:48;94665.97;;;7.80;81.10
36932;BME280;22847;42.654;23.370;2024-03-08T03:10:14;94520.63;;;6.99;80.85
36932;BME280;22847;42.654;23.370;2024-03-08T03:12:43;94639.47;;;7.56;80.27
36932;BME280;22847;42.654;23.370;2024-03-08T03:15:10;94660.16;;;7.88;77.90
36932;BME280;22847;42.654;23.370;2024-03-08T03:17:37;94648.91;;;7.78;77.24
36932;BME280;22847;42.654;23.370;2024-03-08T03:20:05;94559.53;;;7.20;76.49
36932;BME280;22847;42.654;23.370;2024-03-08T03:22:36;94674.13;;;7.76;75.90
36932;BME280;22847;42.654;23.370;2024-03-08T03:25:02;94697.69;;;7.84;74.98
36932;BME280;22847;42.654;23.370;2024-03-08T03:27:29;94657.75;;;7.75;74.49
36932;BME280;22847;42.654;23.370;2024-03-08T03:29:55;94524.56;;;6.93;74.49
36932;BME280;22847;42.654;23.370;2024-03-08T03:32:23;94697.75;;;7.93;74.38
36932;BME280;22847;42.654;23.370;2024-03-08T03:34:49;94715.84;;;7.84;74.82
36932;BME280;22847;42.654;23.370;2024-03-08T03:37:19;94727.00;;;7.75;74.80
36932;BME280;22847;42.654;23.370;2024-03-08T03:39:45;94689.03;;;7.74;74.47
36932;BME280;22847;42.654;23.370;2024-03-08T03:42:19;94686.88;;;7.79;73.26
36932;BME280;22847;42.654;23.370;2024-03-08T03:44:48;94687.19;;;7.65;73.36
36932;BME280;22847;42.654;23.370;2024-03-08T03:47:14;94703.22;;;7.70;74.09
36932;BME280;22847;42.654;23.370;2024-03-08T03:49:41;94718.78;;;7.70;73.16
36932;BME280;22847;42.654;23.370;2024-03-08T03:52:06;94736.63;;;7.84;72.45
36932;BME280;22847;42.654;23.370;2024-03-08T03:54:32;94700.81;;;7.78;72.53
36932;BME280;22847;42.654;23.370;2024-03-08T03:56:59;94715.09;;;7.72;72.67
36932;BME280;22847;42.654;23.370;2024-03-08T03:59:26;94583.81;;;6.98;72.90
36932;BME280;22847;42.654;23.370;2024-03-08T04:01:51;94704.06;;;7.80;73.49
36932;BME280;22847;42.654;23.370;2024-03-08T04:04:17;94562.34;;;6.96;73.34
36932;BME280;22847;42.654;23.370;2024-03-08T04:06:42;94580.88;;;7.12;73.07
36932;BME280;22847;42.654;23.370;2024-03-08T04:09:09;94715.09;;;7.93;73.05
36932;BME280;22847;42.654;23.370;2024-03-08T04:11:35;94719.66;;;8.00;72.71
36932;BME280;22847;42.654;23.370;2024-03-08T04:14:00;94747.25;;;8.01;72.58
36932;BME280;22847;42.654;23.370;2024-03-08T04:16:26;94724.41;;;7.95;72.33
36932;BME280;22847;42.654;23.370;2024-03-08T04:18:52;94532.00;;;6.87;72.23
36932;BME280;22847;42.654;23.370;2024-03-08T04:21:18;94734.59;;;8.08;72.52
36932;BME280;22847;42.654;23.370;2024-03-08T04:23:45;94731.44;;;8.04;73.06
36932;BME280;22847;42.654;23.370;2024-03-08T04:26:11;94657.38;;;7.38;73.50
36932;BME280;22847;42.654;23.370;2024-03-08T04:28:36;94735.63;;;7.96;72.98
36932;BME280;22847;42.654;23.370;2024-03-08T04:31:03;94567.81;;;6.93;73.45
36932;BME280;22847;42.654;23.370;2024-03-08T04:33:29;94744.03;;;7.88;74.15
36932;BME280;22847;42.654;23.370;2024-03-08T04:35:55;94589.38;;;6.93;72.91
36932;BME280;22847;42.654;23.370;2024-03-08T04:38:21;94737.75;;;7.70;72.85
36932;BME280;22847;42.654;23.370;2024-03-08T04:40:46;94714.75;;;7.66;72.46
36932;BME280;22847;42.654;23.370;2024-03-08T04:43:12;94567.16;;;6.80;72.65
36932;BME280;22847;42.654;23.370;2024-03-08T04:45:37;94725.84;;;7.68;72.60
36932;BME280;22847;42.654;23.370;2024-03-08T04:48:04;94750.56;;;7.83;72.15
36932;BME280;22847;42.654;23.370;2024-03-08T04:50:30;94653.81;;;7.18;73.04
36932;BME280;22847;42.654;23.370;2024-03-08T04:52:55;94756.63;;;7.93;72.85
36932;BME280;22847;42.654;23.370;2024-03-08T04:55:21;94767.66;;;7.85;73.04
36932;BME280;22847;42.654;23.370;2024-03-08T04:57:49;94754.78;;;7.84;72.21
36932;BME280;22847;42.654;23.370;2024-03-08T05:00:15;94644.50;;;7.16;72.28
36932;BME280;22847;42.654;23.370;2024-03-08T05:02:41;94781.19;;;7.89;72.21
36932;BME280;22847;42.654;23.370;2024-03-08T05:05:07;94768.94;;;7.91;71.59
36932;BME280;22847;42.654;23.370;2024-03-08T05:07:38;94615.88;;;6.86;71.19
36932;BME280;22847;42.654;23.370;2024-03-08T05:10:05;94601.72;;;6.90;71.16
36932;BME280;22847;42.654;23.370;2024-03-08T05:12:32;94788.38;;;7.96;71.71
36932;BME280;22847;42.654;23.370;2024-03-08T05:14:57;94653.75;;;7.30;71.60
36932;BME280;22847;42.654;23.370;2024-03-08T05:17:24;94666.09;;;7.37;71.20
36932;BME280;22847;42.654;23.370;2024-03-08T05:19:50;94793.50;;;8.07;71.84
36932;BME280;22847;42.654;23.370;2024-03-08T05:22:16;94769.22;;;7.97;71.34
36932;BME280;22847;42.654;23.370;2024-03-08T05:24:42;94764.47;;;7.82;71.76
36932;BME280;22847;42.654;23.370;2024-03-08T05:27:08;94786.19;;;8.01;71.97
36932;BME280;22847;42.654;23.370;2024-03-08T05:29:34;94786.91;;;8.03;72.41
36932;BME280;22847;42.654;23.370;2024-03-08T05:31:59;94786.78;;;8.05;72.74
36932;BME280;22847;42.654;23.370;2024-03-08T05:34:25;94742.38;;;7.67;73.02
36932;BME280;22847;42.654;23.370;2024-03-08T05:36:51;94788.22;;;7.98;72.42
36932;BME280;22847;42.654;23.370;2024-03-08T05:39:17;94754.28;;;7.69;73.22
36932;BME280;22847;42.654;23.370;2024-03-08T05:41:43;94808.13;;;7.88;74.50
36932;BME280;22847;42.654;23.370;2024-03-08T05:44:10;94804.19;;;7.93;76.16
36932;BME280;22847;42.654;23.370;2024-03-08T05:46:36;94773.19;;;7.17;76.64
36932;BME280;22847;42.654;23.370;2024-03-08T05:49:06;94837.88;;;7.52;76.33
36932;BME280;22847;42.654;23.370;2024-03-08T05:51:33;94822.53;;;7.49;76.53
36932;BME280;22847;42.654;23.370;2024-03-08T05:54:02;94826.41;;;7.43;76.92
36932;BME280;22847;42.654;23.370;2024-03-08T05:56:28;94813.28;;;7.13;77.80
36932;BME280;22847;42.654;23.370;2024-03-08T05:58:54;94815.41;;;7.19;78.07
36932;BME280;22847;42.654;23.370;2024-03-08T06:01:19;94681.00;;;6.05;77.29
36932;BME280;22847;42.654;23.370;2024-03-08T06:03:45;94843.94;;;6.75;79.77
36932;BME280;22847;42.654;23.370;2024-03-08T06:06:13;94846.41;;;6.76;79.17
36932;BME280;22847;42.654;23.370;2024-03-08T06:08:38;94850.19;;;6.94;79.10
36932;BME280;22847;42.654;23.370;2024-03-08T06:11:04;94777.47;;;6.07;80.78
36932;BME280;22847;42.654;23.370;2024-03-08T06:13:31;94800.03;;;5.94;82.37
36932;BME280;22847;42.654;23.370;2024-03-08T06:15:57;94844.50;;;6.34;82.85
36932;BME280;22847;42.654;23.370;2024-03-08T06:18:22;94743.03;;;5.13;83.76
36932;BME280;22847;42.654;23.370;2024-03-08T06:20:48;94866.19;;;5.61;85.49
36932;BME280;22847;42.654;23.370;2024-03-08T06:23:13;94841.25;;;5.84;84.70
36932;BME280;22847;42.654;23.370;2024-03-08T06:25:46;94812.72;;;5.38;86.45
36932;BME280;22847;42.654;23.370;2024-03-08T06:28:11;94914.19;;;6.13;84.17
36932;BME280;22847;42.654;23.370;2024-03-08T06:30:37;94865.66;;;5.93;84.53
36932;BME280;22847;42.654;23.370;2024-03-08T06:33:02;94862.66;;;6.10;84.49
36932;BME280;22847;42.654;23.370;2024-03-08T06:35:28;94762.06;;;5.70;83.12
36932;BME280;22847;42.654;23.370;2024-03-08T06:37:53;94867.22;;;6.41;81.81
36932;BME280;22847;42.654;23.370;2024-03-08T06:40:19;94866.03;;;6.34;81.56
36932;BME280;22847;42.654;23.370;2024-03-08T06:42:44;94839.31;;;6.45;80.92
36932;BME280;22847;42.654;23.370;2024-03-08T06:45:10;94874.78;;;6.55;81.08
36932;BME280;22847;42.654;23.370;2024-03-08T06:47:37;94849.59;;;6.80;79.83
36932;BME280;22847;42.654;23.370;2024-03-08T06:50:03;94850.78;;;6.98;78.54
36932;BME280;22847;42.654;23.370;2024-03-08T06:52:29;94875.19;;;7.06;77.58
36932;BME280;22847;42.654;23.370;2024-03-08T06:54:55;94859.47;;;7.30;77.29
36932;BME280;22847;42.654;23.370;2024-03-08T06:57:22;94870.97;;;7.48;77.29
36932;BME280;22847;42.654;23.370;2024-03-08T06:59:48;94716.97;;;6.63;76.86
36932;BME280;22847;42.654;23.370;2024-03-08T07:02:14;94869.03;;;7.73;75.79
36932;BME280;22847;42.654;23.370;2024-03-08T07:04:39;94877.63;;;7.84;75.42
36932;BME280;22847;42.654;23.370;2024-03-08T07:07:05;94885.25;;;7.97;74.26
36932;BME280;22847;42.654;23.370;2024-03-08T07:09:33;94882.97;;;8.03;73.85
36932;BME280;22847;42.654;23.370;2024-03-08T07:11:59;94867.69;;;7.89;73.30
36932;BME280;22847;42.654;23.370;2024-03-08T07:14:24;94840.41;;;7.95;72.58
36932;BME280;22847;42.654;23.370;2024-03-08T07:16:50;94878.78;;;8.23;72.76
36932;BME280;22847;42.654;23.370;2024-03-08T07:19:16;94880.13;;;8.38;72.20
36932;BME280;22847;42.654;23.370;2024-03-08T07:21:44;94859.50;;;8.37;72.44
36932;BME280;22847;42.654;23.370;2024-03-08T07:24:10;94872.66;;;8.45;71.10
36932;BME280;22847;42.654;23.370;2024-03-08T07:26:54;94878.50;;;8.58;70.49
36932;BME280;22847;42.654;23.370;2024-03-08T07:29:21;94888.72;;;8.18;69.84
36932;BME280;22847;42.654;23.370;2024-03-08T07:31:47;94741.13;;;7.29;68.99
36932;BME280;22847;42.654;23.370;2024-03-08T07:34:35;94888.16;;;8.46;68.99
36932;BME280;22847;42.654;23.370;2024-03-08T07:37:00;94856.50;;;8.41;68.82
36932;BME280;22847;42.654;23.370;2024-03-08T07:39:26;94920.91;;;8.59;68.64
36932;BME280;22847;42.654;23.370;2024-03-08T07:41:51;94894.97;;;8.47;68.86
36932;BME280;22847;42.654;23.370;2024-03-08T07:44:20;94867.19;;;8.27;69.54
36932;BME280;22847;42.654;23.370;2024-03-08T07:46:45;94893.53;;;8.55;69.91
36932;BME280;22847;42.654;23.370;2024-03-08T07:49:11;94894.50;;;8.84;71.03
36932;BME280;22847;42.654;23.370;2024-03-08T07:51:37;94878.63;;;8.77;68.55
36932;BME280;22847;42.654;23.370;2024-03-08T07:54:04;94895.13;;;8.97;68.12
36932;BME280;22847;42.654;23.370;2024-03-08T07:56:34;94892.09;;;8.92;68.06
36932;BME280;22847;42.654;23.370;2024-03-08T07:59:02;94809.88;;;8.40;69.24
36932;BME280;22847;42.654;23.370;2024-03-08T08:01:29;94901.00;;;8.69;68.76
36932;BME280;22847;42.654;23.370;2024-03-08T08:03:56;94902.75;;;8.47;70.35
36932;BME280;22847;42.654;23.370;2024-03-08T08:06:22;94882.94;;;8.67;70.93
36932;BME280;22847;42.654;23.370;2024-03-08T08:08:48;94760.06;;;8.14;70.19
36932;BME280;22847;42.654;23.370;2024-03-08T08:11:13;94883.06;;;8.96;69.25
36932;BME280;22847;42.654;23.370;2024-03-08T08:13:41;94912.81;;;9.33;70.37
36932;BME280;22847;42.654;23.370;2024-03-08T08:16:09;94888.50;;;9.44;69.58
36932;BME280;22847;42.654;23.370;2024-03-08T08:18:35;94889.75;;;9.59;68.64
36932;BME280;22847;42.654;23.370;2024-03-08T08:21:02;94859.97;;;9.43;68.88
36932;BME280;22847;42.654;23.370;2024-03-08T08:23:27;94878.50;;;9.49;68.29
36932;BME280;22847;42.654;23.370;2024-03-08T08:25:54;94755.06;;;8.83;65.87
36932;BME280;22847;42.654;23.370;2024-03-08T08:28:20;94875.34;;;9.55;65.51
36932;BME280;22847;42.654;23.370;2024-03-08T08:30:46;94841.31;;;9.28;68.98
36932;BME280;22847;42.654;23.370;2024-03-08T08:33:11;94858.31;;;9.41;66.36
36932;BME280;22847;42.654;23.370;2024-03-08T08:35:38;94858.59;;;9.38;68.00
36932;BME280;22847;42.654;23.370;2024-03-08T08:38:04;94892.66;;;9.66;66.80
36932;BME280;22847;42.654;23.370;2024-03-08T08:40:30;94834.09;;;9.31;66.83
36932;BME280;22847;42.654;23.370;2024-03-08T08:42:58;94893.06;;;9.21;66.22
36932;BME280;22847;42.654;23.370;2024-03-08T08:45:24;94779.31;;;8.93;65.21
36932;BME280;22847;42.654;23.370;2024-03-08T08:47:49;94750.84;;;8.82;65.13
36932;BME280;22847;42.654;23.370;2024-03-08T08:50:15;94729.50;;;8.48;65.35
36932;BME280;22847;42.654;23.370;2024-03-08T08:52:41;94810.97;;;8.98;66.02
36932;BME280;22847;42.654;23.370;2024-03-08T08:55:10;94792.03;;;9.46;65.34
36932;BME280;22847;42.654;23.370;2024-03-08T08:57:42;94733.69;;;9.38;62.84
36932;BME280;22847;42.654;23.370;2024-03-08T09:00:09;94731.75;;;9.21;64.28
36932;BME280;22847;42.654;23.370;2024-03-08T09:02:40;94876.00;;;10.55;63.83
36932;BME280;22847;42.654;23.370;2024-03-08T09:05:06;94878.28;;;10.77;61.97
36932;BME280;22847;42.654;23.370;2024-03-08T09:07:33;94878.94;;;10.98;61.73
36932;BME280;22847;42.654;23.370;2024-03-08T09:09:59;94849.63;;;11.14;60.50
36932;BME280;22847;42.654;23.370;2024-03-08T09:12:25;94802.47;;;11.52;58.40
36932;BME280;22847;42.654;23.370;2024-03-08T09:14:51;94856.09;;;12.45;56.17
36932;BME280;22847;42.654;23.370;2024-03-08T09:17:17;94865.09;;;13.12;55.16
36932;BME280;22847;42.654;23.370;2024-03-08T09:19:48;94852.56;;;12.97;53.18
36932;BME280;22847;42.654;23.370;2024-03-08T09:22:14;94700.44;;;11.72;51.28
36932;BME280;22847;42.654;23.370;2024-03-08T09:24:39;94765.63;;;12.08;52.37
36932;BME280;22847;42.654;23.370;2024-03-08T09:27:05;94732.91;;;11.69;53.18
36932;BME280;22847;42.654;23.370;2024-03-08T09:29:31;94870.91;;;12.19;53.93
36932;BME280;22847;42.654;23.370;2024-03-08T09:31:57;94847.47;;;12.09;52.06
36932;BME280;22847;42.654;23.370;2024-03-08T09:34:22;94864.28;;;12.42;53.20
36932;BME280;22847;42.654;23.370;2024-03-08T09:36:48;94717.34;;;12.21;51.60
36932;BME280;22847;42.654;23.370;2024-03-08T09:39:16;94865.88;;;13.38;51.61
36932;BME280;22847;42.654;23.370;2024-03-08T09:41:45;94787.38;;;13.12;50.02
36932;BME280;22847;42.654;23.370;2024-03-08T09:44:13;94842.66;;;13.77;51.03
36932;BME280;22847;42.654;23.370;2024-03-08T09:46:40;94855.63;;;13.45;50.08
36932;BME280;22847;42.654;23.370;2024-03-08T09:49:06;94801.16;;;11.11;52.91
36932;BME280;22847;42.654;23.370;2024-03-08T09:51:34;94728.97;;;10.75;56.10
36932;BME280;22847;42.654;23.370;2024-03-08T09:54:01;94838.03;;;11.81;56.52
36932;BME280;22847;42.654;23.370;2024-03-08T09:56:32;94864.84;;;11.83;54.67
36932;BME280;22847;42.654;23.370;2024-03-08T09:58:59;94876.97;;;11.47;56.56
36932;BME280;22847;42.654;23.370;2024-03-08T10:01:36;94822.31;;;11.36;57.56
36932;BME280;22847;42.654;23.370;2024-03-08T10:04:04;94772.56;;;11.19;58.55
36932;BME280;22847;42.654;23.370;2024-03-08T10:06:30;94825.88;;;11.62;57.65
36932;BME280;22847;42.654;23.370;2024-03-08T10:08:56;94876.69;;;11.77;56.96
36932;BME280;22847;42.654;23.370;2024-03-08T10:11:22;94710.94;;;10.82;56.09
36932;BME280;22847;42.654;23.370;2024-03-08T10:13:49;94867.75;;;11.52;55.28
36932;BME280;22847;42.654;23.370;2024-03-08T10:16:15;94766.38;;;10.93;58.83
36932;BME280;22847;42.654;23.370;2024-03-08T10:18:42;94861.34;;;11.92;58.45
36932;BME280;22847;42.654;23.370;2024-03-08T10:21:11;94712.69;;;11.53;55.71
36932;BME280;22847;42.654;23.370;2024-03-08T10:23:37;94861.03;;;12.91;54.69
36932;BME280;22847;42.654;23.370;2024-03-08T10:26:12;94828.03;;;12.98;53.42
36932;BME280;22847;42.654;23.370;2024-03-08T10:28:48;94862.06;;;13.24;51.22
36932;BME280;22847;42.654;23.370;2024-03-08T10:31:14;94853.66;;;12.87;50.15
36932;BME280;22847;42.654;23.370;2024-03-08T10:33:43;94742.22;;;11.72;51.19
36932;BME280;22847;42.654;23.370;2024-03-08T10:36:10;94692.69;;;11.44;50.68
36932;BME280;22847;42.654;23.370;2024-03-08T10:38:38;94834.59;;;12.51;50.43
36932;BME280;22847;42.654;23.370;2024-03-08T10:41:07;94834.38;;;12.70;51.49
36932;BME280;22847;42.654;23.370;2024-03-08T10:49:23;94839.31;;;12.99;50.75
36932;BME280;22847;42.654;23.370;2024-03-08T10:51:50;94825.22;;;13.18;54.79
36932;BME280;22847;42.654;23.370;2024-03-08T10:54:18;94820.19;;;12.73;50.70
36932;BME280;22847;42.654;23.370;2024-03-08T10:56:46;94817.16;;;12.60;51.81
36932;BME280;22847;42.654;23.370;2024-03-08T10:59:14;94829.47;;;12.67;52.74
36932;BME280;22847;42.654;23.370;2024-03-08T11:01:40;94829.09;;;12.62;53.37
36932;BME280;22847;42.654;23.370;2024-03-08T11:04:06;94694.84;;;11.67;52.75
36932;BME280;22847;42.654;23.370;2024-03-08T11:09:04;94812.81;;;12.68;53.00
36932;BME280;22847;42.654;23.370;2024-03-08T11:11:38;94776.50;;;12.47;52.35
36932;BME280;22847;42.654;23.370;2024-03-08T11:14:42;94810.69;;;12.72;51.26
36932;BME280;22847;42.654;23.370;2024-03-08T11:17:09;94602.03;;;11.11;51.73
36932;BME280;22847;42.654;23.370;2024-03-08T11:19:34;94825.41;;;12.47;51.87
36932;BME280;22847;42.654;23.370;2024-03-08T11:22:01;94811.97;;;12.42;51.56
36932;BME280;22847;42.654;23.370;2024-03-08T11:24:28;94636.97;;;11.36;50.44
36932;BME280;22847;42.654;23.370;2024-03-08T11:27:03;94798.16;;;12.83;49.87
36932;BME280;22847;42.654;23.370;2024-03-08T11:32:10;94809.34;;;12.93;49.66
36932;BME280;22847;42.654;23.370;2024-03-08T11:34:37;94776.88;;;12.52;49.91
36932;BME280;22847;42.654;23.370;2024-03-08T11:37:11;94797.34;;;12.57;49.89
36932;BME280;22847;42.654;23.370;2024-03-08T11:39:39;94782.47;;;12.58;49.99
36932;BME280;22847;42.654;23.370;2024-03-08T11:42:05;94771.31;;;12.73;49.14
36932;BME280;22847;42.654;23.370;2024-03-08T11:44:30;94792.69;;;13.03;51.98
36932;BME280;22847;42.654;23.370;2024-03-08T11:46:57;94783.94;;;13.12;49.38
36932;BME280;22847;42.654;23.370;2024-03-08T11:49:22;94682.91;;;12.51;48.13
36932;BME280;22847;42.654;23.370;2024-03-08T11:51:52;94787.66;;;12.75;48.50
36932;BME280;22847;42.654;23.370;2024-03-08T11:54:18;94762.59;;;12.65;49.98
36932;BME280;22847;42.654;23.370;2024-03-08T11:56:44;94529.63;;;10.78;48.49
36932;BME280;22847;42.654;23.370;2024-03-08T11:59:12;94796.72;;;12.89;54.26
36932;BME280;22847;42.654;23.370;2024-03-08T12:01:38;94755.72;;;12.97;49.97
36932;BME280;22847;42.654;23.370;2024-03-08T12:04:04;94762.03;;;13.13;51.19
36932;BME280;22847;42.654;23.370;2024-03-08T12:06:39;94802.72;;;13.41;49.98
36932;BME280;22847;42.654;23.370;2024-03-08T12:09:08;94780.78;;;13.42;48.10
36932;BME280;22847;42.654;23.370;2024-03-08T12:11:34;94765.94;;;13.51;48.85
36932;BME280;22847;42.654;23.370;2024-03-08T12:14:01;94782.84;;;13.64;47.82
36932;BME280;22847;42.654;23.370;2024-03-08T12:16:27;94783.50;;;13.82;48.31
36932;BME280;22847;42.654;23.370;2024-03-08T12:18:53;94750.44;;;13.81;46.95
36932;BME280;22847;42.654;23.370;2024-03-08T12:21:19;94782.25;;;14.27;46.82
36932;BME280;22847;42.654;23.370;2024-03-08T12:24:07;94778.97;;;14.09;44.89
36932;BME280;22847;42.654;23.370;2024-03-08T12:26:37;94796.31;;;14.02;45.59
36932;BME280;22847;42.654;23.370;2024-03-08T12:29:25;94777.06;;;13.61;47.41
36932;BME280;22847;42.654;23.370;2024-03-08T12:31:54;94774.44;;;13.53;49.22
36932;BME280;22847;42.654;23.370;2024-03-08T12:34:21;94743.78;;;13.37;48.81
36932;BME280;22847;42.654;23.370;2024-03-08T12:36:47;94607.28;;;12.32;47.96
36932;BME280;22847;42.654;23.370;2024-03-08T12:39:17;94730.78;;;13.19;49.79
36932;BME280;22847;42.654;23.370;2024-03-08T12:41:45;94739.59;;;13.10;47.96
36932;BME280;22847;42.654;23.370;2024-03-08T12:44:12;94765.91;;;13.09;47.93
36932;BME280;22847;42.654;23.370;2024-03-08T12:46:38;94613.63;;;12.29;50.34
36932;BME280;22847;42.654;23.370;2024-03-08T12:49:09;94740.47;;;13.19;50.04
36932;BME280;22847;42.654;23.370;2024-03-08T12:51:35;94742.44;;;13.33;47.25
36932;BME280;22847;42.654;23.370;2024-03-08T12:54:01;94743.09;;;13.19;49.50
36932;BME280;22847;42.654;23.370;2024-03-08T12:56:31;94751.22;;;13.16;47.88
36932;BME280;22847;42.654;23.370;2024-03-08T12:58:58;94760.59;;;12.92;50.40
36932;BME280;22847;42.654;23.370;2024-03-08T13:01:24;94758.06;;;13.09;49.98
36932;BME280;22847;42.654;23.370;2024-03-08T13:03:49;94736.91;;;13.02;48.82
36932;BME280;22847;42.654;23.370;2024-03-08T13:06:15;94617.53;;;11.91;48.02
36932;BME280;22847;42.654;23.370;2024-03-08T13:08:41;94761.53;;;12.83;47.69